Washington Dulles International Airport
KIAD : now visible

Airfield :











YOU CAN JOIN US ON...

 
LOGIN :

Register | Disclaimer

   EN    FR    IT 

 









Legend :    VFR   Marginal VFR   IFR   Intensive IFR   Very Intensive IFR
Visi :
Ceiling :
>= 8 km
>= 3000ft
5 to 8 km
1000 to 3000 ft
1500m to 5 km
500 to 1000 ft
800 to 1500m
200 to 500 ft
< 800m
< 200 ft
Symbols :   Thunderstorms  Fog  Heavy snow  Heavy precipitations  Wind > 20 kt






- Airport Elevation : 312 ft
- IATA code : IAD


KIAD - Washington Dulles International

CURRENT METAR :
  • 250852Z 00000KT 10SM BKN018 BKN025 OVC040 16/14 A3018 RMK AO2 SLP218 T01610139 58002

EXPIRED METARs :
  • 250752Z 10003KT 10SM FEW008 BKN017 OVC022 16/13 A3018 RMK AO2 SLP218 T01610133
  • 250652Z 17004KT 10SM OVC015 16/13 A3018 RMK AO2 SLP219 T01610133
  • 250552Z 17003KT 10SM OVC015 17/13 A3018 RMK AO2 SLP219 T01670133 10178 20161 58009

TAF KIAD
Valid from the 25 at 09:00 until the 26 at 12:00 UTC


250857Z 2509/2612 13004KT P6SM OVC015
FM251500 11004KT P6SM BKN020
FM251900 14003KT P6SM BKN045
FM252200 15003KT P6SM SCT050
KZDC FIR / North America



MET'MAP, your aeronautical weather chart ! - Copyright ORBIFLY December 2007 - Disclaimer

ORBIFLY MET'MAP TEAM :

Programming & Development : Alexandra Zaïnal
Concept & original design : Baudouin d'Aumeries
Assistance for programming : Marc-Olivier Méhu
Technical & hardware support : Manuel Goepfert

Contact : metmap@orbifly.com




SOURCES & CREDITS :

   NOAA       Earth
Advisory